createdAt,value
2022-09-07T00:00:09.269Z,15.21
2022-09-07T00:05:11.045Z,15.21
2022-09-07T00:10:12.668Z,15.11
2022-09-07T00:15:14.384Z,15.02
2022-09-07T00:20:16.117Z,15.05
2022-09-07T00:25:17.830Z,15.07
2022-09-07T00:30:19.498Z,14.84
2022-09-07T00:35:21.157Z,14.84
2022-09-07T00:40:22.788Z,14.94
2022-09-07T00:45:24.768Z,14.76
2022-09-07T00:50:32.552Z,14.51
2022-09-07T00:55:37.353Z,14.85
2022-09-07T01:00:41.861Z,14.86
2022-09-07T01:05:52.677Z,14.89
2022-09-07T01:10:55.429Z,14.67
2022-09-07T01:16:17.354Z,14.80
2022-09-07T01:21:24.305Z,14.64
2022-09-07T01:26:59.743Z,14.29
2022-09-07T01:32:12.732Z,14.27
2022-09-07T01:37:33.097Z,14.26
2022-09-07T01:42:47.513Z,14.42
2022-09-07T01:47:54.647Z,14.23
2022-09-07T01:53:03.040Z,14.41
2022-09-07T01:58:23.331Z,14.43
2022-09-07T02:03:34.451Z,14.35
2022-09-07T02:09:00.920Z,14.34
2022-09-07T02:14:24.736Z,14.08
2022-09-07T02:19:34.166Z,14.13
2022-09-07T02:24:49.933Z,14.05
2022-09-07T02:29:52.245Z,14.00
2022-09-07T02:34:53.873Z,14.07
2022-09-07T02:39:55.711Z,14.10
2022-09-07T02:44:57.724Z,13.88
2022-09-07T02:50:20.462Z,13.96
2022-09-07T02:55:40.373Z,13.94
2022-09-07T03:00:59.026Z,13.98
2022-09-07T03:06:07.866Z,13.87
2022-09-07T03:11:10.182Z,13.91
2022-09-07T03:16:15.963Z,13.90
2022-09-07T03:21:17.649Z,13.64
2022-09-07T03:26:25.178Z,13.38
2022-09-07T03:31:26.961Z,13.27
2022-09-07T03:36:32.262Z,13.27
2022-09-07T03:41:34.722Z,13.54
2022-09-07T03:46:36.503Z,13.69
2022-09-07T03:51:39.817Z,13.64
2022-09-07T03:56:45.882Z,13.54
2022-09-07T04:01:49.415Z,13.48
2022-09-07T04:06:51.375Z,13.35
2022-09-07T04:11:53.029Z,13.68
2022-09-07T04:16:54.970Z,13.51
2022-09-07T04:21:56.702Z,13.36
2022-09-07T04:26:58.372Z,13.26
2022-09-07T04:32:00.022Z,13.33
2022-09-07T04:37:01.667Z,13.43
2022-09-07T04:42:03.620Z,13.68
2022-09-07T04:47:05.441Z,13.68
2022-09-07T04:52:07.144Z,13.70
2022-09-07T04:57:10.978Z,13.75
2022-09-07T05:02:12.702Z,13.71
2022-09-07T05:07:14.533Z,13.90
2022-09-07T05:12:16.507Z,14.15
2022-09-07T05:17:19.402Z,14.17
2022-09-07T05:22:21.098Z,14.32
2022-09-07T05:27:22.806Z,14.25
2022-09-07T05:32:24.598Z,14.72
2022-09-07T05:37:26.273Z,14.75
2022-09-07T05:42:28.007Z,14.89
2022-09-07T05:47:29.842Z,14.99
2022-09-07T05:52:31.523Z,15.42
2022-09-07T05:57:33.171Z,15.52
2022-09-07T06:02:39.531Z,17.31
2022-09-07T06:07:42.004Z,18.25
2022-09-07T06:12:49.177Z,18.20
2022-09-07T06:17:51.346Z,17.70
2022-09-07T06:22:52.988Z,16.94
2022-09-07T06:27:54.646Z,17.11
2022-09-07T06:32:56.328Z,16.57
2022-09-07T06:37:58.239Z,17.78
2022-09-07T06:42:59.895Z,17.84
2022-09-07T06:48:01.554Z,17.48
2022-09-07T06:58:25.943Z,19.65
2022-09-07T07:03:28.631Z,20.15
2022-09-07T07:08:30.754Z,19.68
2022-09-07T07:13:32.498Z,19.80
2022-09-07T07:18:35.103Z,19.70
2022-09-07T07:23:37.599Z,20.57
2022-09-07T07:34:02.102Z,27.53
2022-09-07T07:39:04.523Z,29.31
2022-09-07T07:44:06.221Z,23.86
2022-09-07T07:49:07.807Z,24.94
2022-09-07T07:54:09.607Z,26.16
2022-09-07T07:59:15.474Z,29.81
2022-09-07T08:04:17.416Z,35.23
2022-09-07T08:09:19.000Z,34.08
2022-09-07T08:14:21.952Z,27.06
2022-09-07T08:19:23.553Z,30.36
2022-09-07T08:24:25.784Z,30.79
2022-09-07T08:29:27.519Z,33.34
2022-09-07T08:34:29.103Z,32.91
2022-09-07T08:39:31.176Z,35.20
2022-09-07T08:44:48.907Z,35.69
2022-09-07T08:50:04.748Z,35.24
2022-09-07T08:55:32.067Z,35.26
2022-09-07T09:00:36.057Z,35.92
2022-09-07T09:05:43.913Z,32.10
2022-09-07T09:11:10.827Z,37.07
2022-09-07T09:16:42.754Z,34.88
2022-09-07T09:21:45.542Z,34.41
2022-09-07T09:26:51.686Z,34.33
2022-09-07T09:31:53.681Z,32.98
2022-09-07T09:36:56.454Z,33.00
2022-09-07T09:42:19.770Z,30.54
2022-09-07T09:47:32.877Z,29.59
2022-09-07T09:52:47.659Z,28.58
2022-09-07T10:04:00.994Z,27.37
2022-09-07T10:09:03.627Z,26.31
2022-09-07T10:14:05.585Z,26.02
2022-09-07T10:19:34.019Z,25.74
2022-09-07T10:24:39.607Z,25.31
2022-09-07T10:29:41.767Z,24.71
2022-09-07T10:34:55.314Z,25.11
2022-09-07T10:40:00.726Z,24.88
2022-09-07T10:45:20.598Z,25.25
2022-09-07T10:50:36.710Z,25.89
2022-09-07T10:56:00.042Z,26.92
2022-09-07T11:01:24.193Z,30.62
2022-09-07T11:06:32.209Z,29.53
2022-09-07T11:17:13.956Z,28.73
2022-09-07T11:22:22.834Z,29.08
2022-09-07T11:27:44.017Z,28.16
2022-09-07T11:32:55.327Z,29.20
2022-09-07T11:38:02.783Z,29.32
2022-09-07T11:43:22.454Z,30.49
2022-09-07T11:48:33.383Z,31.94
2022-09-07T11:53:44.396Z,32.46
2022-09-07T11:59:05.271Z,32.32
2022-09-07T12:04:29.458Z,34.66
2022-09-07T12:10:02.502Z,35.85
2022-09-07T12:15:28.342Z,33.60
2022-09-07T12:20:47.319Z,30.84
2022-09-07T12:25:51.404Z,27.44
2022-09-07T12:31:04.541Z,27.12
2022-09-07T12:36:28.146Z,26.33
2022-09-07T12:47:30.075Z,24.97
2022-09-07T12:52:45.810Z,24.63
2022-09-07T12:58:04.708Z,23.72
2022-09-07T13:08:44.083Z,22.32
2022-09-07T13:14:17.120Z,22.07
2022-09-07T13:19:50.927Z,21.58
2022-09-07T13:24:55.693Z,21.23
2022-09-07T13:30:15.214Z,21.42
2022-09-07T13:35:22.674Z,22.65
2022-09-07T13:40:27.203Z,22.94
2022-09-07T13:45:28.944Z,23.95
2022-09-07T13:50:44.181Z,24.52
2022-09-07T13:55:56.828Z,25.16
2022-09-07T14:01:02.497Z,27.30
2022-09-07T14:06:37.223Z,26.54
2022-09-07T14:11:54.350Z,25.12
2022-09-07T14:17:07.223Z,25.42
2022-09-07T14:22:14.690Z,25.10
2022-09-07T14:27:23.718Z,23.55
2022-09-07T14:32:27.162Z,24.40
2022-09-07T14:37:29.629Z,24.46
2022-09-07T14:42:32.125Z,25.52
2022-09-07T14:47:38.253Z,26.12
2022-09-07T14:53:33.318Z,25.57
2022-09-07T14:58:13.697Z,26.00
2022-09-07T15:03:29.694Z,25.73
2022-09-07T15:08:42.565Z,25.21
2022-09-07T15:13:45.524Z,25.46
2022-09-07T15:18:54.934Z,25.66
2022-09-07T15:24:01.358Z,25.66
2022-09-07T15:29:11.109Z,25.23
2022-09-07T15:34:16.056Z,25.37
2022-09-07T15:39:21.242Z,25.43
2022-09-07T15:44:26.480Z,25.80
2022-09-07T15:49:29.708Z,25.75
2022-09-07T15:54:35.246Z,25.43
2022-09-07T15:59:38.670Z,25.22
2022-09-07T16:04:40.401Z,25.25
2022-09-07T16:09:42.055Z,25.32
2022-09-07T16:14:43.854Z,25.06
2022-09-07T16:19:45.566Z,24.62
2022-09-07T16:24:48.074Z,24.61
2022-09-07T16:29:49.719Z,24.10
2022-09-07T16:34:51.366Z,23.77
2022-09-07T16:39:53.364Z,23.60
2022-09-07T16:46:02.207Z,23.32
2022-09-07T16:50:16.756Z,22.93
2022-09-07T16:55:18.704Z,22.76
2022-09-07T17:00:20.758Z,22.32
2022-09-07T17:05:22.757Z,21.91
2022-09-07T17:10:24.471Z,21.67
2022-09-07T17:15:26.234Z,21.89
2022-09-07T17:20:28.285Z,21.65
2022-09-07T17:25:29.912Z,21.38
2022-09-07T17:30:33.047Z,21.31
2022-09-07T17:35:37.438Z,21.40
2022-09-07T17:40:39.239Z,21.57
2022-09-07T17:45:40.932Z,21.50
2022-09-07T17:50:42.790Z,21.20
2022-09-07T17:55:44.877Z,20.94
2022-09-07T18:00:46.655Z,20.69
2022-09-07T18:05:53.974Z,20.64
2022-09-07T18:16:30.276Z,20.72
2022-09-07T18:21:35.267Z,20.58
2022-09-07T18:26:39.137Z,20.55
2022-09-07T18:31:40.814Z,20.71
2022-09-07T18:36:44.028Z,20.65
2022-09-07T18:41:45.870Z,20.58
2022-09-07T18:46:47.464Z,20.38
2022-09-07T18:57:10.683Z,20.50
2022-09-07T19:02:12.520Z,20.46
2022-09-07T19:07:14.191Z,20.06
2022-09-07T19:12:15.838Z,20.03
2022-09-07T19:17:17.993Z,19.87
2022-09-07T19:22:19.663Z,19.91
2022-09-07T19:27:21.267Z,19.72
2022-09-07T19:32:22.895Z,19.60
2022-09-07T19:37:25.746Z,19.54
2022-09-07T19:42:28.081Z,19.42
2022-09-07T19:47:29.741Z,19.17
2022-09-07T19:52:31.553Z,19.12
2022-09-07T19:57:33.177Z,19.05
2022-09-07T20:02:34.787Z,18.82
2022-09-07T20:07:36.428Z,18.95
2022-09-07T20:12:38.144Z,19.05
2022-09-07T20:17:39.779Z,18.67
2022-09-07T20:22:41.437Z,18.86
2022-09-07T20:27:43.135Z,18.65
2022-09-07T20:32:44.818Z,18.82
2022-09-07T20:37:46.446Z,18.71
2022-09-07T20:42:48.290Z,18.58
2022-09-07T20:47:49.884Z,18.38
2022-09-07T20:52:51.474Z,18.18
2022-09-07T20:57:53.201Z,18.34
2022-09-07T21:02:54.803Z,18.24
2022-09-07T21:07:56.606Z,18.11
2022-09-07T21:12:58.225Z,17.93
2022-09-07T21:17:59.813Z,17.85
2022-09-07T21:23:01.473Z,17.74
2022-09-07T21:28:03.109Z,17.71
2022-09-07T21:33:04.802Z,17.58
2022-09-07T21:38:06.440Z,17.56
2022-09-07T21:43:08.332Z,17.58
2022-09-07T21:48:10.157Z,17.56
2022-09-07T21:53:12.730Z,17.49
2022-09-07T21:58:14.903Z,17.51
2022-09-07T22:03:16.818Z,17.47
2022-09-07T22:08:18.639Z,17.45
2022-09-07T22:13:20.467Z,17.43
2022-09-07T22:18:22.140Z,17.43
2022-09-07T22:23:23.779Z,17.29
2022-09-07T22:28:25.667Z,17.35
2022-09-07T22:33:27.274Z,17.17
2022-09-07T22:38:28.928Z,17.06
2022-09-07T22:43:30.545Z,17.04
2022-09-07T22:48:32.773Z,16.94
2022-09-07T22:53:37.534Z,16.94
2022-09-07T22:58:39.660Z,17.06
2022-09-07T23:03:41.661Z,17.20
2022-09-07T23:08:43.843Z,17.18
2022-09-07T23:13:45.880Z,17.03
2022-09-07T23:18:48.413Z,17.10
2022-09-07T23:23:55.313Z,17.16
2022-09-07T23:29:02.465Z,17.06
2022-09-07T23:34:04.627Z,17.13
2022-09-07T23:39:06.271Z,16.93
2022-09-07T23:44:08.133Z,16.68
2022-09-07T23:49:09.777Z,16.89
2022-09-07T23:54:11.378Z,16.81
2022-09-07T23:59:12.983Z,16.79
